sensor_id;sensor_type;location;lat;lon;timestamp;pressure;altitude;pressure_sealevel;temperature;humidity
39275;BME280;24980;48.874;2.332;2023-05-02T00:00:52;101713.39;;;24.26;46.35
39275;BME280;24980;48.874;2.332;2023-05-02T00:03:22;101713.31;;;24.27;46.37
39275;BME280;24980;48.874;2.332;2023-05-02T00:05:53;101719.72;;;24.29;46.37
39275;BME280;24980;48.874;2.332;2023-05-02T00:08:30;101716.24;;;24.30;46.35
39275;BME280;24980;48.874;2.332;2023-05-02T00:10:53;101717.06;;;24.31;46.32
39275;BME280;24980;48.874;2.332;2023-05-02T00:13:24;101714.72;;;24.30;46.31
39275;BME280;24980;48.874;2.332;2023-05-02T00:15:53;101709.30;;;24.30;46.29
39275;BME280;24980;48.874;2.332;2023-05-02T00:18:23;101710.73;;;24.30;46.28
39275;BME280;24980;48.874;2.332;2023-05-02T00:20:54;101710.48;;;24.30;46.25
39275;BME280;24980;48.874;2.332;2023-05-02T00:23:24;101712.06;;;24.31;46.23
39275;BME280;24980;48.874;2.332;2023-05-02T00:25:55;101711.75;;;24.30;46.21
39275;BME280;24980;48.874;2.332;2023-05-02T00:28:24;101707.43;;;24.30;46.20
39275;BME280;24980;48.874;2.332;2023-05-02T00:30:55;101703.79;;;24.30;46.19
39275;BME280;24980;48.874;2.332;2023-05-02T00:33:25;101700.83;;;24.30;46.18
39275;BME280;24980;48.874;2.332;2023-05-02T00:35:55;101698.62;;;24.30;46.18
39275;BME280;24980;48.874;2.332;2023-05-02T00:38:25;101698.20;;;24.30;46.17
39275;BME280;24980;48.874;2.332;2023-05-02T00:40:58;101698.96;;;24.30;46.16
39275;BME280;24980;48.874;2.332;2023-05-02T00:43:29;101696.64;;;24.31;46.18
39275;BME280;24980;48.874;2.332;2023-05-02T00:45:56;101696.81;;;24.31;46.16
39275;BME280;24980;48.874;2.332;2023-05-02T00:48:27;101696.72;;;24.31;46.15
39275;BME280;24980;48.874;2.332;2023-05-02T00:50:57;101700.53;;;24.31;46.15
39275;BME280;24980;48.874;2.332;2023-05-02T00:53:26;101700.28;;;24.31;46.15
39275;BME280;24980;48.874;2.332;2023-05-02T00:55:57;101701.72;;;24.31;46.15
39275;BME280;24980;48.874;2.332;2023-05-02T00:58:28;101703.34;;;24.31;46.14
39275;BME280;24980;48.874;2.332;2023-05-02T01:08:39;101705.11;;;24.32;46.15
39275;BME280;24980;48.874;2.332;2023-05-02T01:11:14;101704.61;;;24.32;46.15
39275;BME280;24980;48.874;2.332;2023-05-02T01:13:34;101700.88;;;24.32;46.14
39275;BME280;24980;48.874;2.332;2023-05-02T01:16:04;101701.89;;;24.33;46.14
39275;BME280;24980;48.874;2.332;2023-05-02T01:18:35;101700.88;;;24.33;46.16
39275;BME280;24980;48.874;2.332;2023-05-02T01:21:09;101709.77;;;24.33;46.16
39275;BME280;24980;48.874;2.332;2023-05-02T01:23:52;101711.55;;;24.33;46.14
39275;BME280;24980;48.874;2.332;2023-05-02T01:31:05;101705.84;;;24.34;46.12
39275;BME280;24980;48.874;2.332;2023-05-02T01:33:35;101705.16;;;24.34;46.12
39275;BME280;24980;48.874;2.332;2023-05-02T01:36:06;101709.48;;;24.34;46.13
39275;BME280;24980;48.874;2.332;2023-05-02T01:38:36;101707.54;;;24.34;46.14
39275;BME280;24980;48.874;2.332;2023-05-02T01:41:06;101716.09;;;24.35;46.16
39275;BME280;24980;48.874;2.332;2023-05-02T01:43:47;101714.57;;;24.34;46.16
39275;BME280;24980;48.874;2.332;2023-05-02T01:46:09;101716.77;;;24.34;46.17
39275;BME280;24980;48.874;2.332;2023-05-02T01:48:37;101719.57;;;24.35;46.17
39275;BME280;24980;48.874;2.332;2023-05-02T01:51:08;101712.54;;;24.36;46.16
39275;BME280;24980;48.874;2.332;2023-05-02T01:53:39;101715.59;;;24.35;46.17
39275;BME280;24980;48.874;2.332;2023-05-02T01:56:10;101715.25;;;24.35;46.17
39275;BME280;24980;48.874;2.332;2023-05-02T01:58:41;101713.64;;;24.34;46.18
39275;BME280;24980;48.874;2.332;2023-05-02T02:01:11;101705.50;;;24.35;46.18
39275;BME280;24980;48.874;2.332;2023-05-02T02:03:42;101703.13;;;24.34;46.18
39275;BME280;24980;48.874;2.332;2023-05-02T02:06:13;101707.88;;;24.35;46.19
39275;BME280;24980;48.874;2.332;2023-05-02T02:08:42;101704.91;;;24.35;46.20
39275;BME280;24980;48.874;2.332;2023-05-02T02:11:16;101710.33;;;24.35;46.20
39275;BME280;24980;48.874;2.332;2023-05-02T02:13:48;101710.08;;;24.35;46.21
39275;BME280;24980;48.874;2.332;2023-05-02T02:16:29;101709.23;;;24.36;46.23
39275;BME280;24980;48.874;2.332;2023-05-02T02:18:44;101712.67;;;24.38;46.25
39275;BME280;24980;48.874;2.332;2023-05-02T02:21:19;101719.20;;;24.38;46.31
39275;BME280;24980;48.874;2.332;2023-05-02T02:23:48;101717.67;;;24.38;46.38
39275;BME280;24980;48.874;2.332;2023-05-02T02:26:18;101720.81;;;24.40;46.43
39275;BME280;24980;48.874;2.332;2023-05-02T02:28:47;101725.61;;;24.40;46.46
39275;BME280;24980;48.874;2.332;2023-05-02T02:31:17;101724.59;;;24.40;46.46
39275;BME280;24980;48.874;2.332;2023-05-02T02:33:48;101720.95;;;24.41;46.43
39275;BME280;24980;48.874;2.332;2023-05-02T02:36:23;101720.27;;;24.41;46.41
39275;BME280;24980;48.874;2.332;2023-05-02T02:39:01;101726.20;;;24.40;46.39
39275;BME280;24980;48.874;2.332;2023-05-02T02:41:25;101724.25;;;24.40;46.37
39275;BME280;24980;48.874;2.332;2023-05-02T02:44:03;101733.27;;;24.40;46.37
39275;BME280;24980;48.874;2.332;2023-05-02T02:46:30;101737.34;;;24.40;46.34
39275;BME280;24980;48.874;2.332;2023-05-02T02:51:34;101744.70;;;24.39;46.32
39275;BME280;24980;48.874;2.332;2023-05-02T02:54:16;101741.74;;;24.39;46.31
39275;BME280;24980;48.874;2.332;2023-05-02T02:56:37;101746.41;;;24.40;46.30
39275;BME280;24980;48.874;2.332;2023-05-02T02:59:04;101745.38;;;24.40;46.30
39275;BME280;24980;48.874;2.332;2023-05-02T03:01:24;101743.95;;;24.40;46.32
39275;BME280;24980;48.874;2.332;2023-05-02T03:03:54;101740.72;;;24.39;46.35
39275;BME280;24980;48.874;2.332;2023-05-02T03:06:24;101740.52;;;24.40;46.37
39275;BME280;24980;48.874;2.332;2023-05-02T03:08:54;101736.88;;;24.40;46.37
39275;BME280;24980;48.874;2.332;2023-05-02T03:11:24;101735.52;;;24.40;46.35
39275;BME280;24980;48.874;2.332;2023-05-02T03:13:54;101736.55;;;24.41;46.34
39275;BME280;24980;48.874;2.332;2023-05-02T03:16:35;101741.20;;;24.42;46.34
39275;BME280;24980;48.874;2.332;2023-05-02T03:18:55;101741.54;;;24.40;46.33
39275;BME280;24980;48.874;2.332;2023-05-02T03:21:25;101743.19;;;24.40;46.33
39275;BME280;24980;48.874;2.332;2023-05-02T03:23:55;101742.67;;;24.39;46.33
39275;BME280;24980;48.874;2.332;2023-05-02T03:26:25;101745.81;;;24.39;46.33
39275;BME280;24980;48.874;2.332;2023-05-02T03:28:58;101746.91;;;24.38;46.32
39275;BME280;24980;48.874;2.332;2023-05-02T03:31:26;101746.31;;;24.38;46.32
39275;BME280;24980;48.874;2.332;2023-05-02T03:33:56;101748.77;;;24.38;46.32
39275;BME280;24980;48.874;2.332;2023-05-02T03:36:26;101751.73;;;24.38;46.33
39275;BME280;24980;48.874;2.332;2023-05-02T03:38:56;101755.21;;;24.39;46.32
39275;BME280;24980;48.874;2.332;2023-05-02T03:41:26;101755.55;;;24.39;46.33
39275;BME280;24980;48.874;2.332;2023-05-02T03:43:56;101758.02;;;24.39;46.33
39275;BME280;24980;48.874;2.332;2023-05-02T03:46:26;101756.99;;;24.39;46.33
39275;BME280;24980;48.874;2.332;2023-05-02T03:49:02;101756.73;;;24.40;46.32
39275;BME280;24980;48.874;2.332;2023-05-02T03:51:27;101758.02;;;24.40;46.32
39275;BME280;24980;48.874;2.332;2023-05-02T03:53:57;101758.23;;;24.40;46.32
39275;BME280;24980;48.874;2.332;2023-05-02T03:56:27;101756.20;;;24.40;46.32
39275;BME280;24980;48.874;2.332;2023-05-02T03:58:57;101755.12;;;24.39;46.32
39275;BME280;24980;48.874;2.332;2023-05-02T04:01:27;101754.45;;;24.40;46.32
39275;BME280;24980;48.874;2.332;2023-05-02T04:03:57;101757.84;;;24.40;46.33
39275;BME280;24980;48.874;2.332;2023-05-02T04:06:27;101755.21;;;24.39;46.33
39275;BME280;24980;48.874;2.332;2023-05-02T04:08:57;101757.25;;;24.39;46.33
39275;BME280;24980;48.874;2.332;2023-05-02T04:11:27;101753.94;;;24.39;46.33
39275;BME280;24980;48.874;2.332;2023-05-02T04:13:59;101750.38;;;24.39;46.34
39275;BME280;24980;48.874;2.332;2023-05-02T04:16:28;101752.33;;;24.40;46.34
39275;BME280;24980;48.874;2.332;2023-05-02T04:18:58;101754.67;;;24.41;46.35
39275;BME280;24980;48.874;2.332;2023-05-02T04:21:28;101754.51;;;24.42;46.38
39275;BME280;24980;48.874;2.332;2023-05-02T04:23:58;101759.34;;;24.43;46.41
39275;BME280;24980;48.874;2.332;2023-05-02T04:26:29;101769.22;;;24.45;46.42
39275;BME280;24980;48.874;2.332;2023-05-02T04:28:59;101775.41;;;24.46;46.42
39275;BME280;24980;48.874;2.332;2023-05-02T04:31:30;101774.73;;;24.46;46.42
39275;BME280;24980;48.874;2.332;2023-05-02T04:33:59;101777.86;;;24.46;46.41
39275;BME280;24980;48.874;2.332;2023-05-02T04:36:29;101779.87;;;24.47;46.39
39275;BME280;24980;48.874;2.332;2023-05-02T04:38:59;101783.85;;;24.47;46.37
39275;BME280;24980;48.874;2.332;2023-05-02T04:41:29;101785.80;;;24.47;46.37
39275;BME280;24980;48.874;2.332;2023-05-02T04:43:59;101791.05;;;24.48;46.38
39275;BME280;24980;48.874;2.332;2023-05-02T04:46:29;101800.12;;;24.50;46.43
39275;BME280;24980;48.874;2.332;2023-05-02T04:48:59;101800.60;;;24.51;46.44
39275;BME280;24980;48.874;2.332;2023-05-02T04:51:29;101806.28;;;24.52;46.43
39275;BME280;24980;48.874;2.332;2023-05-02T04:53:59;101805.48;;;24.53;46.41
39275;BME280;24980;48.874;2.332;2023-05-02T04:56:29;101810.41;;;24.54;46.39
39275;BME280;24980;48.874;2.332;2023-05-02T04:59:02;101811.00;;;24.55;46.36
39275;BME280;24980;48.874;2.332;2023-05-02T05:01:32;101810.91;;;24.55;46.36
39275;BME280;24980;48.874;2.332;2023-05-02T05:04:00;101812.61;;;24.56;46.34
39275;BME280;24980;48.874;2.332;2023-05-02T05:06:30;101809.22;;;24.56;46.33
39275;BME280;24980;48.874;2.332;2023-05-02T05:09:00;101812.24;;;24.57;46.33
39275;BME280;24980;48.874;2.332;2023-05-02T05:11:30;101811.14;;;24.57;46.33
39275;BME280;24980;48.874;2.332;2023-05-02T05:14:03;101815.55;;;24.57;46.32
39275;BME280;24980;48.874;2.332;2023-05-02T05:16:30;101821.66;;;24.58;46.32
39275;BME280;24980;48.874;2.332;2023-05-02T05:19:00;101824.62;;;24.58;46.30
39275;BME280;24980;48.874;2.332;2023-05-02T05:21:30;101828.60;;;24.58;46.29
39275;BME280;24980;48.874;2.332;2023-05-02T05:24:00;101835.12;;;24.59;46.31
39275;BME280;24980;48.874;2.332;2023-05-02T05:26:30;101837.47;;;24.60;46.34
39275;BME280;24980;48.874;2.332;2023-05-02T05:29:00;101839.00;;;24.62;46.41
39275;BME280;24980;48.874;2.332;2023-05-02T05:31:31;101842.28;;;24.63;46.48
39275;BME280;24980;48.874;2.332;2023-05-02T05:34:01;101846.01;;;24.65;46.54
39275;BME280;24980;48.874;2.332;2023-05-02T05:36:31;101848.77;;;24.66;46.56
39275;BME280;24980;48.874;2.332;2023-05-02T05:39:01;101853.44;;;24.68;46.55
39275;BME280;24980;48.874;2.332;2023-05-02T05:41:31;101852.77;;;24.68;46.53
39275;BME280;24980;48.874;2.332;2023-05-02T05:44:01;101858.87;;;24.68;46.51
39275;BME280;24980;48.874;2.332;2023-05-02T05:46:31;101862.17;;;24.68;46.49
39275;BME280;24980;48.874;2.332;2023-05-02T05:49:01;101865.48;;;24.68;46.48
39275;BME280;24980;48.874;2.332;2023-05-02T05:51:31;101869.97;;;24.68;46.47
39275;BME280;24980;48.874;2.332;2023-05-02T05:54:01;101868.19;;;24.69;46.46
39275;BME280;24980;48.874;2.332;2023-05-02T05:56:31;101873.53;;;24.68;46.45
39275;BME280;24980;48.874;2.332;2023-05-02T05:59:01;101877.35;;;24.69;46.41
39275;BME280;24980;48.874;2.332;2023-05-02T06:01:31;101875.53;;;24.69;46.40
39275;BME280;24980;48.874;2.332;2023-05-02T06:04:01;101880.20;;;24.70;46.37
39275;BME280;24980;48.874;2.332;2023-05-02T06:06:34;101878.25;;;24.70;46.36
39275;BME280;24980;48.874;2.332;2023-05-02T06:09:03;101886.81;;;24.71;46.35
39275;BME280;24980;48.874;2.332;2023-05-02T06:11:38;101889.87;;;24.72;46.36
39275;BME280;24980;48.874;2.332;2023-05-02T06:14:03;101890.04;;;24.71;46.39
39275;BME280;24980;48.874;2.332;2023-05-02T06:16:33;101894.95;;;24.72;46.42
39275;BME280;24980;48.874;2.332;2023-05-02T06:19:04;101896.31;;;24.72;46.44
39275;BME280;24980;48.874;2.332;2023-05-02T06:21:35;101899.08;;;24.73;46.47
39275;BME280;24980;48.874;2.332;2023-05-02T06:24:04;101901.20;;;24.73;46.48
39275;BME280;24980;48.874;2.332;2023-05-02T06:26:34;101903.32;;;24.74;46.49
39275;BME280;24980;48.874;2.332;2023-05-02T06:29:04;101903.32;;;24.74;46.50
39275;BME280;24980;48.874;2.332;2023-05-02T06:31:34;101902.39;;;24.74;46.51
39275;BME280;24980;48.874;2.332;2023-05-02T06:34:04;101907.98;;;24.75;46.51
39275;BME280;24980;48.874;2.332;2023-05-02T06:36:34;101905.44;;;24.75;46.51
39275;BME280;24980;48.874;2.332;2023-05-02T06:39:04;101910.50;;;24.76;46.53
39275;BME280;24980;48.874;2.332;2023-05-02T06:41:34;101914.83;;;24.76;46.53
39275;BME280;24980;48.874;2.332;2023-05-02T06:44:04;101919.31;;;24.76;46.54
39275;BME280;24980;48.874;2.332;2023-05-02T06:46:40;101920.16;;;24.76;46.54
39275;BME280;24980;48.874;2.332;2023-05-02T06:49:05;101921.12;;;24.75;46.55
39275;BME280;24980;48.874;2.332;2023-05-02T06:51:35;101924.74;;;24.76;46.55
39275;BME280;24980;48.874;2.332;2023-05-02T06:54:05;101925.53;;;24.74;46.56
39275;BME280;24980;48.874;2.332;2023-05-02T06:56:36;101923.84;;;24.74;46.57
39275;BME280;24980;48.874;2.332;2023-05-02T06:59:06;101921.12;;;24.74;46.57
39275;BME280;24980;48.874;2.332;2023-05-02T07:01:36;101917.65;;;24.74;46.57
39275;BME280;24980;48.874;2.332;2023-05-02T07:04:06;101922.14;;;24.74;46.58
39275;BME280;24980;48.874;2.332;2023-05-02T07:06:36;101929.09;;;24.75;46.57
39275;BME280;24980;48.874;2.332;2023-05-02T07:09:06;101927.91;;;24.75;46.57
39275;BME280;24980;48.874;2.332;2023-05-02T07:11:36;101929.95;;;24.75;46.56
39275;BME280;24980;48.874;2.332;2023-05-02T07:14:06;101926.55;;;24.75;46.56
39275;BME280;24980;48.874;2.332;2023-05-02T07:16:36;101925.93;;;24.76;46.56
39275;BME280;24980;48.874;2.332;2023-05-02T07:19:20;101926.72;;;24.75;46.56
39275;BME280;24980;48.874;2.332;2023-05-02T07:21:37;101923.16;;;24.75;46.57
39275;BME280;24980;48.874;2.332;2023-05-02T07:24:07;101924.94;;;24.75;46.59
39275;BME280;24980;48.874;2.332;2023-05-02T07:26:38;101924.69;;;24.74;46.59
39275;BME280;24980;48.874;2.332;2023-05-02T07:29:08;101922.23;;;24.74;46.59
39275;BME280;24980;48.874;2.332;2023-05-02T07:31:38;101919.34;;;24.74;46.59
39275;BME280;24980;48.874;2.332;2023-05-02T07:34:08;101925.95;;;24.74;46.59
39275;BME280;24980;48.874;2.332;2023-05-02T07:36:39;101924.80;;;24.72;46.61
39275;BME280;24980;48.874;2.332;2023-05-02T07:39:09;101929.04;;;24.72;46.62
39275;BME280;24980;48.874;2.332;2023-05-02T07:41:39;101929.62;;;24.71;46.64
39275;BME280;24980;48.874;2.332;2023-05-02T07:44:10;101935.65;;;24.71;46.69
39275;BME280;24980;48.874;2.332;2023-05-02T07:46:40;101939.04;;;24.71;46.75
39275;BME280;24980;48.874;2.332;2023-05-02T07:49:11;101942.43;;;24.71;46.81
39275;BME280;24980;48.874;2.332;2023-05-02T07:51:42;101947.27;;;24.70;46.89
39275;BME280;24980;48.874;2.332;2023-05-02T07:54:18;101947.17;;;24.71;46.94
39275;BME280;24980;48.874;2.332;2023-05-02T07:56:42;101948.53;;;24.70;46.95
39275;BME280;24980;48.874;2.332;2023-05-02T07:59:12;101950.66;;;24.69;46.94
39275;BME280;24980;48.874;2.332;2023-05-02T08:01:42;101948.81;;;24.69;46.94
39275;BME280;24980;48.874;2.332;2023-05-02T08:04:13;101950.77;;;24.68;46.96
39275;BME280;24980;48.874;2.332;2023-05-02T08:06:43;101948.90;;;24.67;46.96
39275;BME280;24980;48.874;2.332;2023-05-02T08:09:13;101954.74;;;24.66;46.97
39275;BME280;24980;48.874;2.332;2023-05-02T08:11:43;101958.59;;;24.65;46.96
39275;BME280;24980;48.874;2.332;2023-05-02T08:14:16;101962.31;;;24.64;46.96
39275;BME280;24980;48.874;2.332;2023-05-02T08:16:45;101964.69;;;24.64;46.97
39275;BME280;24980;48.874;2.332;2023-05-02T08:19:15;101966.58;;;24.62;46.99
39275;BME280;24980;48.874;2.332;2023-05-02T08:21:52;101965.98;;;24.62;46.98
39275;BME280;24980;48.874;2.332;2023-05-02T08:24:15;101974.29;;;24.61;47.02
39275;BME280;24980;48.874;2.332;2023-05-02T08:26:46;101975.98;;;24.60;47.04
39275;BME280;24980;48.874;2.332;2023-05-02T08:29:16;101970.67;;;24.58;47.05
39275;BME280;24980;48.874;2.332;2023-05-02T08:31:46;101971.52;;;24.57;47.07
39275;BME280;24980;48.874;2.332;2023-05-02T08:34:16;101974.81;;;24.57;47.08
39275;BME280;24980;48.874;2.332;2023-05-02T08:36:47;101970.77;;;24.55;47.09
39275;BME280;24980;48.874;2.332;2023-05-02T08:39:17;101972.12;;;24.54;47.10
39275;BME280;24980;48.874;2.332;2023-05-02T08:41:47;101975.69;;;24.54;47.11
39275;BME280;24980;48.874;2.332;2023-05-02T08:44:17;101976.30;;;24.52;47.13
39275;BME280;24980;48.874;2.332;2023-05-02T08:46:49;101982.23;;;24.52;47.13
39275;BME280;24980;48.874;2.332;2023-05-02T08:51:50;101993.58;;;24.50;47.16
39275;BME280;24980;48.874;2.332;2023-05-02T08:54:20;101999.30;;;24.50;47.19
39275;BME280;24980;48.874;2.332;2023-05-02T08:56:50;102003.19;;;24.50;47.21
39275;BME280;24980;48.874;2.332;2023-05-02T08:59:20;102002.59;;;24.49;47.22
39275;BME280;24980;48.874;2.332;2023-05-02T09:01:54;102010.14;;;24.50;47.23
39275;BME280;24980;48.874;2.332;2023-05-02T09:04:23;102006.66;;;24.49;47.24
39275;BME280;24980;48.874;2.332;2023-05-02T09:06:51;102012.00;;;24.49;47.25
39275;BME280;24980;48.874;2.332;2023-05-02T09:09:22;102013.27;;;24.49;47.26
39275;BME280;24980;48.874;2.332;2023-05-02T09:11:52;102010.90;;;24.48;47.29
39275;BME280;24980;48.874;2.332;2023-05-02T09:14:22;102012.42;;;24.49;47.30
39275;BME280;24980;48.874;2.332;2023-05-02T09:16:57;102016.16;;;24.48;47.30
39275;BME280;24980;48.874;2.332;2023-05-02T09:19:24;102019.64;;;24.45;47.23
39275;BME280;24980;48.874;2.332;2023-05-02T09:22:06;102028.48;;;24.42;47.07
39275;BME280;24980;48.874;2.332;2023-05-02T09:24:24;102033.23;;;24.38;46.90
39275;BME280;24980;48.874;2.332;2023-05-02T09:26:58;102042.39;;;24.34;46.74
39275;BME280;24980;48.874;2.332;2023-05-02T09:29:26;102041.31;;;24.31;46.60
39275;BME280;24980;48.874;2.332;2023-05-02T09:31:55;102040.05;;;24.27;46.50
39275;BME280;24980;48.874;2.332;2023-05-02T09:34:25;102042.52;;;24.24;46.41
39275;BME280;24980;48.874;2.332;2023-05-02T09:36:55;102046.94;;;24.22;46.31
39275;BME280;24980;48.874;2.332;2023-05-02T09:39:26;102045.68;;;24.18;46.23
39275;BME280;24980;48.874;2.332;2023-05-02T09:41:56;102048.33;;;24.17;46.14
39275;BME280;24980;48.874;2.332;2023-05-02T09:44:36;102047.80;;;24.14;46.05
39275;BME280;24980;48.874;2.332;2023-05-02T09:46:57;102047.22;;;24.11;45.97
39275;BME280;24980;48.874;2.332;2023-05-02T09:52:16;102041.28;;;24.10;45.88
39275;BME280;24980;48.874;2.332;2023-05-02T09:54:34;102038.91;;;24.10;45.89
39275;BME280;24980;48.874;2.332;2023-05-02T09:57:02;102039.51;;;24.10;45.94
39275;BME280;24980;48.874;2.332;2023-05-02T09:59:30;102042.23;;;24.12;45.98
39275;BME280;24980;48.874;2.332;2023-05-02T10:02:04;102051.80;;;24.16;46.03
39275;BME280;24980;48.874;2.332;2023-05-02T10:04:31;102052.28;;;24.18;46.08
39275;BME280;24980;48.874;2.332;2023-05-02T10:07:02;102049.92;;;24.20;46.13
39275;BME280;24980;48.874;2.332;2023-05-02T10:09:34;102048.63;;;24.22;46.18
39275;BME280;24980;48.874;2.332;2023-05-02T10:12:03;102049.31;;;24.23;46.23
39275;BME280;24980;48.874;2.332;2023-05-02T10:14:39;102040.57;;;24.24;46.29
39275;BME280;24980;48.874;2.332;2023-05-02T10:17:10;102043.80;;;24.25;46.33
39275;BME280;24980;48.874;2.332;2023-05-02T10:22:06;102046.16;;;24.30;46.41
39275;BME280;24980;48.874;2.332;2023-05-02T10:24:37;102042.83;;;24.31;46.46
39275;BME280;24980;48.874;2.332;2023-05-02T10:27:07;102044.36;;;24.32;46.49
39275;BME280;24980;48.874;2.332;2023-05-02T10:29:38;102041.15;;;24.33;46.53
39275;BME280;24980;48.874;2.332;2023-05-02T10:32:08;102041.97;;;24.34;46.57
39275;BME280;24980;48.874;2.332;2023-05-02T10:34:39;102041.47;;;24.35;46.60
39275;BME280;24980;48.874;2.332;2023-05-02T10:37:10;102041.22;;;24.36;46.64
39275;BME280;24980;48.874;2.332;2023-05-02T10:39:40;102041.79;;;24.38;46.70
39275;BME280;24980;48.874;2.332;2023-05-02T10:42:10;102044.51;;;24.39;46.72
39275;BME280;24980;48.874;2.332;2023-05-02T10:44:40;102039.91;;;24.41;46.75
39275;BME280;24980;48.874;2.332;2023-05-02T10:47:20;102042.80;;;24.42;46.77
39275;BME280;24980;48.874;2.332;2023-05-02T10:49:52;102049.58;;;24.43;46.80
39275;BME280;24980;48.874;2.332;2023-05-02T10:52:35;102046.76;;;24.44;46.82
39275;BME280;24980;48.874;2.332;2023-05-02T10:54:42;102051.52;;;24.45;46.83
39275;BME280;24980;48.874;2.332;2023-05-02T10:57:12;102050.08;;;24.46;46.84
39275;BME280;24980;48.874;2.332;2023-05-02T10:59:42;102051.41;;;24.48;46.87
39275;BME280;24980;48.874;2.332;2023-05-02T11:04:58;102049.70;;;24.47;46.90
39275;BME280;24980;48.874;2.332;2023-05-02T11:07:16;102048.35;;;24.47;46.92
39275;BME280;24980;48.874;2.332;2023-05-02T11:09:46;102049.03;;;24.48;46.95
39275;BME280;24980;48.874;2.332;2023-05-02T11:14:46;102045.64;;;24.48;46.97
39275;BME280;24980;48.874;2.332;2023-05-02T11:17:18;102047.17;;;24.49;46.97
39275;BME280;24980;48.874;2.332;2023-05-02T11:24:48;102043.67;;;24.51;47.00
39275;BME280;24980;48.874;2.332;2023-05-02T11:29:52;102041.62;;;24.53;46.99
39275;BME280;24980;48.874;2.332;2023-05-02T11:32:19;102046.48;;;24.52;47.00
39275;BME280;24980;48.874;2.332;2023-05-02T11:34:50;102049.08;;;24.54;47.02
39275;BME280;24980;48.874;2.332;2023-05-02T11:37:19;102051.55;;;24.54;47.02
39275;BME280;24980;48.874;2.332;2023-05-02T11:39:49;102053.58;;;24.55;47.01
39275;BME280;24980;48.874;2.332;2023-05-02T11:42:33;102051.87;;;24.57;47.01
39275;BME280;24980;48.874;2.332;2023-05-02T11:45:05;102049.84;;;24.58;47.00
39275;BME280;24980;48.874;2.332;2023-05-02T11:47:20;102049.64;;;24.59;46.99
39275;BME280;24980;48.874;2.332;2023-05-02T11:49:50;102047.11;;;24.61;46.98
39275;BME280;24980;48.874;2.332;2023-05-02T11:52:20;102043.04;;;24.62;46.97
39275;BME280;24980;48.874;2.332;2023-05-02T11:54:54;102047.09;;;24.63;46.97
39275;BME280;24980;48.874;2.332;2023-05-02T11:57:21;102046.41;;;24.64;46.97
39275;BME280;24980;48.874;2.332;2023-05-02T11:59:56;102042.09;;;24.64;46.96
39275;BME280;24980;48.874;2.332;2023-05-02T12:02:39;102042.68;;;24.64;46.95
39275;BME280;24980;48.874;2.332;2023-05-02T12:04:52;102049.30;;;24.64;46.96
39275;BME280;24980;48.874;2.332;2023-05-02T12:07:42;102044.30;;;24.65;46.96
39275;BME280;24980;48.874;2.332;2023-05-02T12:09:53;102045.73;;;24.64;46.98
39275;BME280;24980;48.874;2.332;2023-05-02T12:12:29;102054.89;;;24.64;46.99
39275;BME280;24980;48.874;2.332;2023-05-02T12:14:53;102053.55;;;24.62;47.02
39275;BME280;24980;48.874;2.332;2023-05-02T12:17:25;102055.59;;;24.62;47.03
39275;BME280;24980;48.874;2.332;2023-05-02T12:19:54;102063.39;;;24.62;47.04
39275;BME280;24980;48.874;2.332;2023-05-02T12:22:24;102064.66;;;24.62;47.04
39275;BME280;24980;48.874;2.332;2023-05-02T12:24:54;102070.23;;;24.63;47.03
39275;BME280;24980;48.874;2.332;2023-05-02T12:27:24;102066.41;;;24.63;47.04
39275;BME280;24980;48.874;2.332;2023-05-02T12:29:54;102071.00;;;24.64;47.05
39275;BME280;24980;48.874;2.332;2023-05-02T12:32:28;102066.25;;;24.65;47.05
39275;BME280;24980;48.874;2.332;2023-05-02T12:34:55;102071.14;;;24.66;47.06
39275;BME280;24980;48.874;2.332;2023-05-02T12:37:26;102079.28;;;24.67;47.05
39275;BME280;24980;48.874;2.332;2023-05-02T12:39:56;102079.20;;;24.68;47.05
39275;BME280;24980;48.874;2.332;2023-05-02T12:42:26;102080.65;;;24.69;47.04
39275;BME280;24980;48.874;2.332;2023-05-02T12:44:56;102091.65;;;24.71;47.03
39275;BME280;24980;48.874;2.332;2023-05-02T12:47:26;102087.16;;;24.71;47.03
39275;BME280;24980;48.874;2.332;2023-05-02T12:49:57;102092.92;;;24.71;47.02
39275;BME280;24980;48.874;2.332;2023-05-02T12:52:48;102090.72;;;24.71;47.03
39275;BME280;24980;48.874;2.332;2023-05-02T12:55:14;102092.39;;;24.72;47.02
39275;BME280;24980;48.874;2.332;2023-05-02T12:57:27;102091.20;;;24.73;47.02
39275;BME280;24980;48.874;2.332;2023-05-02T12:59:58;102094.77;;;24.73;47.02
39275;BME280;24980;48.874;2.332;2023-05-02T13:02:28;102090.52;;;24.72;47.04
39275;BME280;24980;48.874;2.332;2023-05-02T13:04:58;102094.59;;;24.73;47.04
39275;BME280;24980;48.874;2.332;2023-05-02T13:07:28;102088.83;;;24.73;47.03
39275;BME280;24980;48.874;2.332;2023-05-02T13:10:01;102084.51;;;24.74;47.04
39275;BME280;24980;48.874;2.332;2023-05-02T13:12:35;102090.03;;;24.75;47.04
39275;BME280;24980;48.874;2.332;2023-05-02T13:14:58;102094.67;;;24.77;47.04
39275;BME280;24980;48.874;2.332;2023-05-02T13:17:29;102099.59;;;24.77;47.07
39275;BME280;24980;48.874;2.332;2023-05-02T13:19:59;102097.55;;;24.78;47.07
39275;BME280;24980;48.874;2.332;2023-05-02T13:22:29;102091.03;;;24.78;47.08
39275;BME280;24980;48.874;2.332;2023-05-02T13:24:59;102094.30;;;24.79;47.09
39275;BME280;24980;48.874;2.332;2023-05-02T13:27:29;102092.38;;;24.77;47.11
39275;BME280;24980;48.874;2.332;2023-05-02T13:29:59;102096.19;;;24.77;47.13
39275;BME280;24980;48.874;2.332;2023-05-02T13:32:29;102098.48;;;24.76;47.15
39275;BME280;24980;48.874;2.332;2023-05-02T13:34:59;102097.62;;;24.76;47.16
39275;BME280;24980;48.874;2.332;2023-05-02T13:37:30;102089.23;;;24.77;47.15
39275;BME280;24980;48.874;2.332;2023-05-02T13:40:00;102095.34;;;24.78;47.16